Time;durP1;ratioP1;P1;durP2;ratioP2;P2;SDS_P1;SDS_P2;PMS_P1;PMS_P2;Temp;Humidity;BMP_temperature;BMP_pressure;BME280_temperature;BME280_humidity;BME280_pressure;Samples;Min_cycle;Max_cycle;Signal;HPM_P1;HPM_P2
2021/01/14 00:01:12;;;;;;;0.10;0.10;;;;;;;1.86;100.00;99867.63;4980000;28;20070;-77
2021/01/14 00:04:16;;;;;;;0.10;0.10;;;;;;;1.86;100.00;99858.63;4967860;28;20046;-77
2021/01/14 00:07:19;;;;;;;0.10;0.10;;;;;;;1.84;100.00;99863.75;4986017;28;20054;-77
2021/01/14 00:10:23;;;;;;;0.17;0.17;;;;;;;1.85;100.00;99855.09;4987969;28;20054;-77
2021/01/14 00:13:26;;;;;;;0.10;0.10;;;;;;;1.85;100.00;99851.56;4987758;28;20046;-77
2021/01/14 00:16:32;;;;;;;0.20;0.20;;;;;;;1.81;100.00;99846.13;4987799;28;20510;-78
2021/01/14 00:19:35;;;;;;;0.20;0.20;;;;;;;1.81;100.00;99839.88;4988114;28;20411;-77
2021/01/14 00:22:39;;;;;;;0.20;0.20;;;;;;;1.79;100.00;99842.25;4987878;28;20054;-77
2021/01/14 00:25:42;;;;;;;0.15;0.15;;;;;;;1.79;100.00;99832.06;4998384;28;20061;-78
2021/01/14 00:28:46;;;;;;;0.10;0.00;;;;;;;1.78;100.00;99835.19;4986898;28;20073;-78
2021/01/14 00:31:49;;;;;;;0.10;0.10;;;;;;;1.78;100.00;99829.72;4986696;28;20057;-78
2021/01/14 00:34:52;;;;;;;0.10;0.10;;;;;;;1.77;100.00;99833.66;4986517;28;20058;-77
2021/01/14 00:37:56;;;;;;;0.10;0.10;;;;;;;1.76;100.00;99823.84;4987367;28;20770;-77
2021/01/14 00:40:59;;;;;;;0.10;0.10;;;;;;;1.76;100.00;99829.34;4987536;28;20057;-78
2021/01/14 00:44:02;;;;;;;0.10;0.08;;;;;;;1.75;100.00;99814.09;4987658;28;20062;-77
2021/01/14 00:47:06;;;;;;;0.10;0.10;;;;;;;1.75;100.00;99805.84;4999682;28;20105;-77
2021/01/14 00:50:10;;;;;;;0.20;0.20;;;;;;;1.74;100.00;99807.03;4990428;28;20049;-77
2021/01/14 00:53:14;;;;;;;0.10;0.10;;;;;;;1.70;100.00;99800.81;4990747;28;20055;-76
2021/01/14 00:56:17;;;;;;;0.15;0.15;;;;;;;1.69;100.00;99799.28;4989156;28;20758;-77
2021/01/14 00:59:21;;;;;;;0.10;0.10;;;;;;;1.66;100.00;99791.88;4991192;28;20057;-78
2021/01/14 01:02:24;;;;;;;0.15;0.15;;;;;;;1.66;100.00;99792.66;4992348;28;20434;-77
2021/01/14 01:05:28;;;;;;;0.13;0.13;;;;;;;1.67;100.00;99793.44;4990641;28;20073;-77
2021/01/14 01:08:31;;;;;;;0.10;0.10;;;;;;;1.66;100.00;99795.41;5009500;28;20057;-78
2021/01/14 01:11:36;;;;;;;0.10;0.10;;;;;;;1.68;100.00;99789.50;5010342;28;20061;-77
2021/01/14 01:14:40;;;;;;;0.10;0.10;;;;;;;1.69;100.00;99788.31;5010316;28;20509;-78
2021/01/14 01:17:43;;;;;;;0.10;0.10;;;;;;;1.67;100.00;99791.44;5009626;28;20046;-77
2021/01/14 01:20:47;;;;;;;0.20;0.20;;;;;;;1.67;100.00;99788.72;5009049;28;20053;-78
2021/01/14 01:23:50;;;;;;;0.20;0.20;;;;;;;1.66;100.00;99792.66;5008488;28;20053;-78
2021/01/14 01:26:54;;;;;;;0.10;0.10;;;;;;;1.66;100.00;99789.13;5009200;28;20064;-77
2021/01/14 01:29:57;;;;;;;0.20;0.20;;;;;;;1.66;100.00;99784.44;5009556;28;20053;-77
2021/01/14 01:33:01;;;;;;;0.20;0.20;;;;;;;1.63;100.00;99779.75;5009887;28;20773;-77
2021/01/14 01:36:05;;;;;;;0.10;0.10;;;;;;;1.62;100.00;99774.69;5009546;28;20072;-77
2021/01/14 01:39:08;;;;;;;0.20;0.20;;;;;;;1.63;100.00;99770.75;4976606;28;20053;-76
2021/01/14 01:42:12;;;;;;;0.10;0.10;;;;;;;1.66;100.00;99769.91;4968366;28;20049;-77
2021/01/14 01:45:15;;;;;;;0.10;0.10;;;;;;;1.66;100.00;99764.44;4965954;28;20621;-77
2021/01/14 01:48:20;;;;;;;0.10;0.10;;;;;;;1.63;100.00;99752.31;4966384;28;20057;-77
2021/01/14 01:51:33;;;;;;;0.10;0.10;;;;;;;1.65;100.00;99765.59;4992377;28;20057;-77
2021/01/14 01:54:37;;;;;;;0.20;0.20;;;;;;;1.66;100.00;99756.19;5009657;28;20061;-77
2021/01/14 01:57:40;;;;;;;0.10;0.10;;;;;;;1.67;100.00;99753.03;5009396;28;20410;-77
2021/01/14 02:00:44;;;;;;;0.10;0.10;;;;;;;1.66;100.00;99748.75;5008280;28;20794;-77
2021/01/14 02:03:47;;;;;;;0.10;0.10;;;;;;;1.67;100.00;99753.03;5009416;28;20052;-77
2021/01/14 02:07:01;;;;;;;0.10;0.10;;;;;;;1.66;100.00;99751.50;5008928;28;21022;-77
2021/01/14 02:10:17;;;;;;;0.20;0.20;;;;;;;1.67;100.00;99752.28;5009173;28;20057;-77
2021/01/14 02:13:29;;;;;;;0.10;0.10;;;;;;;1.68;100.00;99748.31;5015991;28;20048;-77
2021/01/14 02:16:37;;;;;;;0.20;0.20;;;;;;;1.68;100.00;99749.09;5028030;28;20056;-77
2021/01/14 02:19:45;;;;;;;0.10;0.10;;;;;;;1.70;100.00;99748.69;5028778;28;20078;-78
2021/01/14 02:23:05;;;;;;;0.20;0.20;;;;;;;1.71;100.00;99742.00;5028479;28;20532;-79
2021/01/14 02:26:24;;;;;;;0.10;0.10;;;;;;;1.71;100.00;99737.28;5016027;28;20056;-79
2021/01/14 02:29:28;;;;;;;0.10;0.10;;;;;;;1.75;100.00;99742.72;5014778;28;20168;-79
2021/01/14 02:32:32;;;;;;;0.20;0.20;;;;;;;1.77;100.00;99734.84;5027544;28;20056;-80
2021/01/14 02:35:35;;;;;;;0.10;0.10;;;;;;;1.76;100.00;99727.78;5028783;28;20058;-79
2021/01/14 02:38:39;;;;;;;0.10;0.10;;;;;;;1.76;100.00;99727.78;5028492;28;20056;-77
2021/01/14 02:41:43;;;;;;;0.10;0.10;;;;;;;1.76;100.00;99728.56;5027493;28;20052;-78
2021/01/14 02:44:46;;;;;;;0.10;0.10;;;;;;;1.77;100.00;99721.09;5028142;28;20747;-77
2021/01/14 02:47:50;;;;;;;0.10;0.10;;;;;;;1.78;100.00;99719.91;5028047;28;20048;-78
2021/01/14 02:50:57;;;;;;;0.17;0.17;;;;;;;1.77;100.00;99707.38;5027900;28;20057;-80
2021/01/14 02:54:02;;;;;;;0.10;0.10;;;;;;;1.75;100.00;99710.56;5027672;28;20052;-78
2021/01/14 02:57:07;;;;;;;0.10;0.10;;;;;;;1.75;100.00;99704.28;5027419;28;20057;-78
2021/01/14 03:00:11;;;;;;;0.15;0.15;;;;;;;1.76;100.00;99703.84;5027703;28;20060;-78
2021/01/14 03:03:15;;;;;;;0.10;0.05;;;;;;;1.75;100.00;99696.06;5027521;28;20057;-79
2021/01/14 03:06:18;;;;;;;0.10;0.10;;;;;;;1.75;100.00;99694.09;5025544;28;20048;-79
2021/01/14 03:09:21;;;;;;;0.10;0.10;;;;;;;1.76;100.00;99692.88;5015364;28;20060;-78
2021/01/14 03:12:25;;;;;;;0.20;0.20;;;;;;;1.76;100.00;99695.63;5026841;28;20056;-78
2021/01/14 03:15:29;;;;;;;0.10;0.10;;;;;;;1.78;100.00;99686.97;5008427;28;20643;-78
2021/01/14 03:18:32;;;;;;;0.10;0.10;;;;;;;1.76;100.00;99686.59;5008025;28;20427;-79
2021/01/14 03:21:36;;;;;;;0.17;0.17;;;;;;;1.76;100.00;99681.13;5008065;28;20060;-78
2021/01/14 03:24:39;;;;;;;0.10;0.10;;;;;;;1.76;100.00;99679.16;5008054;28;20390;-79
2021/01/14 03:27:44;;;;;;;0.10;0.10;;;;;;;1.77;100.00;99679.94;5007896;28;20109;-79
2021/01/14 03:30:47;;;;;;;0.10;0.10;;;;;;;1.78;100.00;99678.72;4994958;28;20418;-80
2021/01/14 03:33:51;;;;;;;0.10;0.10;;;;;;;1.77;100.00;99682.69;5007438;28;20072;-79
2021/01/14 03:36:57;;;;;;;0.15;0.15;;;;;;;1.80;100.00;99684.59;5006664;28;20049;-78
2021/01/14 03:40:01;;;;;;;0.20;0.20;;;;;;;1.81;100.00;99686.13;5007570;28;20592;-78
2021/01/14 03:43:04;;;;;;;0.10;0.10;;;;;;;1.81;100.00;99677.91;5007320;28;20053;-78
2021/01/14 03:46:15;;;;;;;0.20;0.20;;;;;;;1.79;100.00;99678.31;5006951;28;20711;-79
2021/01/14 03:49:19;;;;;;;0.10;0.10;;;;;;;1.81;100.00;99669.66;5005596;28;20049;-78
2021/01/14 03:52:22;;;;;;;0.10;0.10;;;;;;;1.80;100.00;99674.38;5007746;28;20061;-78
2021/01/14 03:55:26;;;;;;;0.10;0.10;;;;;;;1.82;100.00;99665.72;5007959;28;20049;-79
2021/01/14 03:58:30;;;;;;;0.10;0.10;;;;;;;1.83;100.00;99661.78;5007496;28;20069;-79
2021/01/14 04:01:34;;;;;;;0.10;0.10;;;;;;;1.84;100.00;99657.84;5009302;28;20428;-78
2021/01/14 04:04:40;;;;;;;0.10;0.10;;;;;;;1.81;100.00;99647.69;5008057;28;20524;-77
2021/01/14 04:07:43;;;;;;;0.10;0.10;;;;;;;1.83;100.00;99650.78;5006273;28;20406;-79
2021/01/14 04:10:48;;;;;;;0.10;0.10;;;;;;;1.85;100.00;99648.41;5006708;28;20053;-77
2021/01/14 04:13:51;;;;;;;0.20;0.20;;;;;;;1.85;100.00;99653.88;5019605;28;20720;-78
2021/01/14 04:16:54;;;;;;;0.15;0.15;;;;;;;1.86;100.00;99638.97;5014610;28;20444;-77
2021/01/14 04:19:59;;;;;;;0.10;0.10;;;;;;;1.87;100.00;99646.78;5026615;28;20058;-78
2021/01/14 04:23:02;;;;;;;0.20;0.20;;;;;;;1.87;100.00;99652.28;5017575;28;20056;-78
2021/01/14 04:26:06;;;;;;;0.17;0.17;;;;;;;1.88;100.00;99645.59;5030397;28;20049;-78
2021/01/14 04:29:10;;;;;;;0.10;0.10;;;;;;;1.89;100.00;99640.88;5030620;28;20703;-79
2021/01/14 04:32:13;;;;;;;0.20;0.20;;;;;;;1.87;100.00;99635.81;5029894;28;20064;-78
2021/01/14 04:35:17;;;;;;;0.10;0.10;;;;;;;1.91;100.00;99632.97;5029446;28;20552;-79
2021/01/14 04:38:23;;;;;;;0.10;0.10;;;;;;;1.89;100.00;99632.63;5030789;28;20052;-79
2021/01/14 04:41:40;;;;;;;0.10;0.10;;;;;;;1.93;100.00;99633.31;5030439;28;20056;-79
2021/01/14 04:44:44;;;;;;;0.10;0.10;;;;;;;1.93;100.00;99627.84;5030395;28;20056;-77
2021/01/14 04:47:50;;;;;;;0.10;0.10;;;;;;;1.93;100.00;99617.63;5030154;28;20068;-77
2021/01/14 04:50:54;;;;;;;0.10;0.10;;;;;;;1.94;100.00;99612.94;5030052;28;20771;-77
2021/01/14 04:54:02;;;;;;;0.10;0.10;;;;;;;1.93;100.00;99612.16;5029958;28;20668;-78
2021/01/14 04:57:18;;;;;;;0.10;0.10;;;;;;;1.96;100.00;99613.28;5030078;28;20057;-78
2021/01/14 05:00:27;;;;;;;0.20;0.20;;;;;;;1.96;100.00;99607.78;5017709;28;20049;-78
2021/01/14 05:03:34;;;;;;;0.20;0.20;;;;;;;1.97;100.00;99612.09;5029664;28;20049;-78
2021/01/14 05:06:38;;;;;;;0.20;0.20;;;;;;;1.99;100.00;99607.69;5010273;28;20521;-78
2021/01/14 05:09:43;;;;;;;0.10;0.10;;;;;;;2.00;100.00;99605.72;4990705;28;20054;-78
2021/01/14 05:12:47;;;;;;;0.10;0.10;;;;;;;1.99;100.00;99602.22;4986680;28;20049;-77
2021/01/14 05:15:51;;;;;;;0.10;0.10;;;;;;;2.01;100.00;99604.56;4959140;28;20416;-78
2021/01/14 05:18:54;;;;;;;0.10;0.10;;;;;;;2.00;100.00;99601.03;4971038;28;20057;-78
2021/01/14 05:22:00;;;;;;;0.10;0.10;;;;;;;2.04;100.00;99609.19;4971001;28;20703;-78
2021/01/14 05:25:08;;;;;;;0.10;0.10;;;;;;;2.05;100.00;99603.28;4971006;28;20057;-78
2021/01/14 05:28:13;;;;;;;0.10;0.10;;;;;;;2.03;100.00;99593.91;4966225;28;20058;-78
2021/01/14 05:31:18;;;;;;;0.20;0.20;;;;;;;2.04;100.00;99598.97;4968938;28;20077;-78
2021/01/14 05:34:22;;;;;;;0.20;0.20;;;;;;;2.04;100.00;99589.94;4970260;28;20049;-78
2021/01/14 05:37:26;;;;;;;0.10;0.10;;;;;;;2.04;100.00;99592.69;4971200;28;20050;-79
2021/01/14 05:40:30;;;;;;;0.10;0.10;;;;;;;2.06;100.00;99587.56;4970554;28;20066;-78
2021/01/14 05:43:59;;;;;;;0.10;0.10;;;;;;;2.07;100.00;99589.13;4970876;28;20515;-78
2021/01/14 05:47:19;;;;;;;0.15;0.15;;;;;;;2.09;100.00;99592.22;4969801;28;20058;-77
2021/01/14 05:50:30;;;;;;;0.10;0.10;;;;;;;2.09;100.00;99583.97;4969208;28;20073;-77
2021/01/14 05:53:48;;;;;;;0.15;0.15;;;;;;;2.10;100.00;99582.78;4970643;28;20065;-78
2021/01/14 05:56:59;;;;;;;0.10;0.10;;;;;;;2.10;100.00;99589.03;4970503;28;20423;-77
2021/01/14 06:00:13;;;;;;;0.10;0.10;;;;;;;2.12;100.00;99583.88;4970283;28;20058;-80
2021/01/14 06:03:28;;;;;;;0.10;0.10;;;;;;;2.11;100.00;99584.31;4966423;28;20590;-79
2021/01/14 06:06:32;;;;;;;0.10;0.10;;;;;;;2.10;100.00;99578.03;4970066;28;20047;-78
2021/01/14 06:09:45;;;;;;;0.20;0.20;;;;;;;2.12;100.00;99585.88;4969940;28;20050;-77
2021/01/14 06:12:49;;;;;;;0.10;0.10;;;;;;;2.14;100.00;99583.47;4973746;28;20053;-77
2021/01/14 06:15:59;;;;;;;0.10;0.10;;;;;;;2.15;100.00;99593.25;4989241;28;20057;-77
2021/01/14 06:19:07;;;;;;;0.20;0.20;;;;;;;2.15;100.00;99585.00;4988768;28;20408;-77
2021/01/14 06:22:15;;;;;;;0.10;0.10;;;;;;;2.15;100.00;99590.50;4989373;28;20419;-78
2021/01/14 06:25:18;;;;;;;0.20;0.20;;;;;;;2.16;100.00;99581.09;4986971;28;20055;-78
2021/01/14 06:28:33;;;;;;;0.10;0.10;;;;;;;2.15;100.00;99585.00;4988461;28;20053;-78
2021/01/14 06:31:36;;;;;;;0.10;0.10;;;;;;;2.16;100.00;99586.56;4989425;28;20065;-78
2021/01/14 06:34:51;;;;;;;0.10;0.10;;;;;;;2.17;100.00;99583.41;4988986;28;20062;-76
2021/01/14 06:38:01;;;;;;;0.10;0.10;;;;;;;2.16;100.00;99581.09;4988964;28;20050;-77
2021/01/14 06:41:16;;;;;;;0.10;0.10;;;;;;;2.15;100.00;99579.53;4988648;28;20058;-78
2021/01/14 06:44:28;;;;;;;0.10;0.10;;;;;;;2.16;100.00;99575.59;4982698;28;20073;-77
2021/01/14 06:47:39;;;;;;;0.10;0.10;;;;;;;2.16;100.00;99575.59;4988412;28;20522;-77
2021/01/14 06:50:49;;;;;;;0.20;0.20;;;;;;;2.14;100.00;99581.47;4987114;28;20281;-77
2021/01/14 06:53:59;;;;;;;0.10;0.10;;;;;;;2.15;100.00;99579.53;4987515;28;20054;-78
2021/01/14 06:57:13;;;;;;;0.10;0.10;;;;;;;2.17;100.00;99585.34;4987863;28;20410;-77
2021/01/14 07:00:19;;;;;;;0.10;0.10;;;;;;;2.15;100.00;99587.75;4987829;28;20057;-77
2021/01/14 07:03:23;;;;;;;0.10;0.10;;;;;;;2.15;100.00;99590.50;4988626;28;20057;-77
2021/01/14 07:06:31;;;;;;;0.10;0.10;;;;;;;2.13;100.00;99592.91;4992890;28;20066;-77
2021/01/14 07:09:41;;;;;;;0.10;0.10;;;;;;;2.13;100.00;99588.19;5028024;28;20053;-78
2021/01/14 07:12:45;;;;;;;0.10;0.10;;;;;;;2.13;100.00;99588.19;5024454;28;20061;-78
2021/01/14 07:15:51;;;;;;;0.10;0.10;;;;;;;2.15;100.00;99590.50;5009839;28;20946;-79
2021/01/14 07:18:56;;;;;;;0.10;0.10;;;;;;;2.15;100.00;99601.50;5008548;28;20102;-78
2021/01/14 07:22:00;;;;;;;0.20;0.20;;;;;;;2.14;100.00;99595.22;5008138;28;20181;-78
2021/01/14 07:25:08;;;;;;;0.20;0.20;;;;;;;2.13;100.00;99587.41;5008967;28;20049;-78
2021/01/14 07:28:12;;;;;;;0.10;0.10;;;;;;;2.14;100.00;99592.47;5008877;28;20731;-78
2021/01/14 07:31:19;;;;;;;0.10;0.10;;;;;;;2.16;100.00;99597.56;5007624;28;20137;-77
2021/01/14 07:34:45;;;;;;;0.10;0.10;;;;;;;2.15;100.00;99598.75;5015745;28;20044;-77
2021/01/14 07:37:53;;;;;;;0.10;0.10;;;;;;;2.14;100.00;99599.97;5010210;28;20052;-77
2021/01/14 07:40:57;;;;;;;0.17;0.17;;;;;;;2.14;100.00;99605.44;4995622;28;20049;-77
2021/01/14 07:44:00;;;;;;;0.20;0.20;;;;;;;2.14;100.00;99600.72;5007771;28;20771;-76
2021/01/14 07:47:04;;;;;;;0.10;0.10;;;;;;;2.14;100.00;99605.44;5007845;28;20753;-77
2021/01/14 07:50:19;;;;;;;0.10;0.10;;;;;;;2.13;100.00;99606.63;4995166;28;20073;-78
2021/01/14 07:53:24;;;;;;;0.10;0.10;;;;;;;2.13;100.00;99610.16;5006273;28;20073;-78
2021/01/14 07:56:27;;;;;;;0.20;0.20;;;;;;;2.13;100.00;99612.13;5009019;28;20053;-77
2021/01/14 07:59:31;;;;;;;0.17;0.17;;;;;;;2.14;100.00;99599.97;5012664;28;20057;-78
2021/01/14 08:03:14;;;;;;;0.10;0.10;;;;;;;2.15;100.00;99617.97;5013053;28;20045;-77
2021/01/14 08:06:35;;;;;;;;;;;;;;;2.14;100.00;99616.44;4972940;28;20739;-78
2021/01/14 08:09:42;;;;;;;0.10;0.10;;;;;;;2.14;100.00;99613.69;5009206;28;20853;-77
2021/01/14 08:12:46;;;;;;;0.10;0.00;;;;;;;2.14;100.00;99613.69;5014433;28;20733;-78
2021/01/14 08:15:51;;;;;;;0.10;0.10;;;;;;;2.14;100.00;99619.19;5030016;28;20698;-78
2021/01/14 08:19:32;;;;;;;0.10;0.10;;;;;;;2.15;100.00;99628.97;5030716;28;20167;-78
2021/01/14 08:22:41;;;;;;;0.10;0.10;;;;;;;2.14;100.00;99625.44;5028725;28;20409;-77
2021/01/14 08:25:45;;;;;;;0.10;0.10;;;;;;;2.15;100.00;99634.44;5030154;28;20053;-77
2021/01/14 08:29:00;;;;;;;0.10;0.10;;;;;;;2.15;100.00;99634.44;5030703;28;20056;-77
2021/01/14 08:32:27;;;;;;;0.15;0.15;;;;;;;2.16;100.00;99636.00;5030524;28;20048;-77
2021/01/14 08:35:33;;;;;;;0.10;0.10;;;;;;;2.16;100.00;99647.78;5028838;28;20084;-78
2021/01/14 08:38:36;;;;;;;0.17;0.17;;;;;;;2.17;100.00;99648.53;5029903;28;20048;-78
2021/01/14 08:41:41;;;;;;;0.10;0.10;;;;;;;2.17;100.00;99654.03;5031421;28;20052;-77
2021/01/14 08:44:46;;;;;;;0.20;0.20;;;;;;;2.14;100.00;99652.16;5029848;28;20429;-77
2021/01/14 08:47:58;;;;;;;0.10;0.10;;;;;;;2.16;100.00;99658.00;5028221;28;20061;-77
2021/01/14 08:51:03;;;;;;;0.10;0.10;;;;;;;2.15;100.00;99661.91;5022719;28;20049;-77
2021/01/14 08:54:08;;;;;;;0.10;0.10;;;;;;;2.16;100.00;99668.97;5013768;28;20529;-79
2021/01/14 08:57:11;;;;;;;0.20;0.20;;;;;;;2.16;100.00;99668.97;5028350;28;20056;-76
2021/01/14 09:00:15;;;;;;;0.15;0.15;;;;;;;2.14;100.00;99676.88;5012793;28;20053;-77
2021/01/14 09:03:21;;;;;;;0.10;0.08;;;;;;;2.15;100.00;99675.66;5019217;28;20049;-79
2021/01/14 09:06:38;;;;;;;0.10;0.10;;;;;;;2.16;100.00;99686.25;5008099;28;20056;-79
2021/01/14 09:09:41;;;;;;;0.10;0.10;;;;;;;2.17;100.00;99681.50;5026984;28;20393;-78
2021/01/14 09:12:45;;;;;;;0.10;0.10;;;;;;;2.18;100.00;99688.56;5018559;28;20048;-79
2021/01/14 09:15:53;;;;;;;0.10;0.10;;;;;;;2.16;100.00;99691.72;5009312;28;20049;-79
2021/01/14 09:18:57;;;;;;;0.10;0.00;;;;;;;2.17;100.00;99692.47;5014241;28;20079;-78
2021/01/14 09:22:00;;;;;;;0.10;0.10;;;;;;;2.20;100.00;99692.44;5028944;28;20159;-78
2021/01/14 09:25:04;;;;;;;0.10;0.10;;;;;;;2.21;100.00;99696.72;5029604;28;20058;-79
2021/01/14 09:28:08;;;;;;;0.10;0.10;;;;;;;2.22;100.00;99711.22;5029009;28;20053;-78
2021/01/14 09:31:12;;;;;;;0.10;0.10;;;;;;;2.22;100.00;99717.50;5029071;28;20072;-79
2021/01/14 09:34:16;;;;;;;0.10;0.10;;;;;;;2.21;100.00;99717.91;5028056;28;20048;-79
2021/01/14 09:37:20;;;;;;;0.10;0.10;;;;;;;2.21;100.00;99720.66;5015684;28;20044;-78
2021/01/14 09:40:24;;;;;;;0.10;0.10;;;;;;;2.20;100.00;99719.13;5029604;28;20049;-77
2021/01/14 09:43:28;;;;;;;0.10;0.10;;;;;;;2.19;100.00;99721.09;5026241;28;20065;-77
2021/01/14 09:46:36;;;;;;;0.10;0.10;;;;;;;2.21;100.00;99718.69;5023018;28;20064;-77
2021/01/14 09:49:41;;;;;;;0.10;0.10;;;;;;;2.22;100.00;99719.47;5009326;28;20061;-77
2021/01/14 09:52:45;;;;;;;0.10;0.10;;;;;;;2.22;100.00;99722.22;5009374;28;20075;-77
2021/01/14 09:55:49;;;;;;;0.10;0.10;;;;;;;2.26;100.00;99728.41;5009183;28;20057;-77
2021/01/14 09:58:55;;;;;;;0.20;0.20;;;;;;;2.26;100.00;99739.41;5009017;28;20057;-77
2021/01/14 10:02:16;;;;;;;0.20;0.20;;;;;;;2.28;100.00;99735.03;5010099;28;20049;-76
2021/01/14 10:05:22;;;;;;;0.10;0.10;;;;;;;2.29;100.00;99739.34;5025213;28;20856;-78
2021/01/14 10:08:28;;;;;;;0.10;0.10;;;;;;;2.28;100.00;99753.50;5027926;28;20049;-78
2021/01/14 10:11:33;;;;;;;0.10;0.10;;;;;;;2.25;100.00;99757.84;5029059;28;20061;-85
2021/01/14 10:14:37;;;;;;;0.10;0.10;;;;;;;2.25;100.00;99765.34;5009757;28;20461;-80
2021/01/14 10:17:41;;;;;;;0.10;0.10;;;;;;;2.26;100.00;99772.38;5008837;28;20053;-79
2021/01/14 10:20:45;;;;;;;0.20;0.20;;;;;;;2.24;100.00;99780.25;5008041;28;20053;-80
2021/01/14 10:23:48;;;;;;;0.10;0.10;;;;;;;2.25;100.00;99784.56;5008954;28;20648;-79
2021/01/14 10:26:54;;;;;;;0.10;0.10;;;;;;;2.25;100.00;99792.81;5009718;28;20053;-79
2021/01/14 10:29:59;;;;;;;0.10;0.10;;;;;;;2.25;100.00;99799.06;5007860;28;20049;-79
2021/01/14 10:33:04;;;;;;;0.10;0.10;;;;;;;2.28;100.00;99808.44;5008786;28;20103;-79
2021/01/14 10:36:08;;;;;;;0.10;0.10;;;;;;;2.24;100.00;99813.22;5008400;28;20438;-79
2021/01/14 10:39:12;;;;;;;0.17;0.17;;;;;;;2.23;100.00;99820.69;5008423;28;20060;-79
2021/01/14 10:42:35;;;;;;;0.20;0.20;;;;;;;2.20;100.00;99823.50;5006731;28;20075;-80
2021/01/14 10:45:39;;;;;;;0.10;0.10;;;;;;;2.16;100.00;99831.03;5008574;28;20057;-80
2021/01/14 10:48:42;;;;;;;0.10;0.10;;;;;;;2.13;100.00;99840.09;5008293;28;20069;-79
2021/01/14 10:51:45;;;;;;;0.15;0.15;;;;;;;2.06;100.00;99849.25;5007901;28;20057;-79
2021/01/14 10:55:00;;;;;;;0.10;0.10;;;;;;;1.99;100.00;99851.34;5007264;28;20053;-80
2021/01/14 10:58:05;;;;;;;0.10;0.10;;;;;;;1.96;100.00;99857.66;5016608;28;21127;-80
2021/01/14 11:01:22;;;;;;;0.10;0.10;;;;;;;1.97;100.00;99861.97;5009292;28;20045;-79
2021/01/14 11:04:25;;;;;;;0.10;0.10;;;;;;;2.00;100.00;99864.66;5013286;28;20677;-78
2021/01/14 11:07:29;;;;;;;0.10;0.10;;;;;;;2.00;100.00;99872.88;5015842;28;20048;-79
2021/01/14 11:10:33;;;;;;;0.10;0.10;;;;;;;2.04;100.00;99886.56;5027027;28;20048;-79
2021/01/14 11:13:47;;;;;;;0.10;0.10;;;;;;;2.02;100.00;99884.22;5027424;28;20057;-80
2021/01/14 11:16:51;;;;;;;0.10;0.10;;;;;;;2.00;100.00;99888.59;5006838;28;20049;-79
2021/01/14 11:19:54;;;;;;;0.10;0.10;;;;;;;1.98;100.00;99901.97;5007557;28;20901;-79
2021/01/14 11:22:58;;;;;;;0.10;0.10;;;;;;;1.93;100.00;99907.91;5007259;28;20057;-78
2021/01/14 11:26:02;;;;;;;0.10;0.10;;;;;;;1.89;100.00;99921.69;5006956;28;20060;-78
2021/01/14 11:29:06;;;;;;;0.10;0.10;;;;;;;1.85;100.00;99911.97;5007357;28;20498;-78
2021/01/14 11:32:09;;;;;;;0.10;0.10;;;;;;;1.84;100.00;99924.16;5006294;28;20069;-78
2021/01/14 11:35:14;;;;;;;0.10;0.10;;;;;;;1.83;100.00;99926.13;5009724;28;20052;-78
2021/01/14 11:38:18;;;;;;;0.10;0.10;;;;;;;1.82;100.00;99934.78;5018048;28;20113;-78
2021/01/14 11:41:24;;;;;;;0.10;0.08;;;;;;;1.79;100.00;99935.59;5027265;28;20064;-78
2021/01/14 11:44:28;;;;;;;0.20;0.20;;;;;;;1.76;100.00;99936.41;5027361;28;20433;-78
2021/01/14 11:47:32;;;;;;;0.10;0.10;;;;;;;1.71;100.00;99945.13;5027397;28;20060;-79
2021/01/14 11:50:36;;;;;;;0.10;0.10;;;;;;;1.65;100.00;99957.72;5027278;28;20057;-80
2021/01/14 11:53:39;;;;;;;0.10;0.10;;;;;;;1.61;100.00;99957.00;5027755;28;20072;-81
2021/01/14 11:56:43;;;;;;;0.10;0.10;;;;;;;1.56;100.00;99960.22;5026028;28;20053;-76
2021/01/14 11:59:46;;;;;;;0.10;0.10;;;;;;;1.48;100.00;99968.53;5026542;28;20048;-78
2021/01/14 12:02:50;;;;;;;0.10;0.10;;;;;;;1.45;100.00;99969.34;5029112;28;20068;-77
2021/01/14 12:05:53;;;;;;;0.10;0.10;;;;;;;1.45;100.00;99983.06;5027132;28;20679;-78
2021/01/14 12:08:57;;;;;;;0.10;0.10;;;;;;;1.46;100.00;99972.88;5026746;28;20767;-78
2021/01/14 12:12:00;;;;;;;0.10;0.10;;;;;;;1.43;100.00;99979.97;5026623;28;20532;-79
2021/01/14 12:15:05;;;;;;;0.17;0.17;;;;;;;1.43;100.00;99977.22;5026642;28;20056;-77
2021/01/14 12:18:09;;;;;;;0.20;0.20;;;;;;;1.39;100.00;99979.25;5014352;28;20060;-77
2021/01/14 12:21:16;;;;;;;0.10;0.10;;;;;;;1.37;100.00;99992.59;5026426;28;20053;-78
2021/01/14 12:24:19;;;;;;;0.28;0.28;;;;;;;1.36;100.00;99991.06;5025660;28;20703;-77
2021/01/14 12:27:23;;;;;;;0.10;0.10;;;;;;;1.39;100.00;99998.44;5027254;28;20053;-77
2021/01/14 12:30:27;;;;;;;0.10;0.10;;;;;;;1.38;100.00;99988.66;5018555;28;20048;-77
2021/01/14 12:33:30;;;;;;;0.20;0.20;;;;;;;1.39;100.00;100001.19;5007347;28;20504;-76
2021/01/14 12:36:34;;;;;;;0.10;0.10;;;;;;;1.39;100.00;100006.66;5007378;28;20053;-77
2021/01/14 12:39:37;;;;;;;0.10;0.10;;;;;;;1.35;100.00;99994.19;5006942;28;20068;-76
2021/01/14 12:42:41;;;;;;;0.10;0.10;;;;;;;1.34;100.00;99992.63;5007840;28;20044;-76
2021/01/14 12:45:44;;;;;;;0.10;0.10;;;;;;;1.36;100.00;99993.00;5009453;28;20049;-75
2021/01/14 12:48:48;;;;;;;0.13;0.13;;;;;;;1.35;100.00;99996.94;5010534;28;20045;-76
2021/01/14 12:51:52;;;;;;;0.10;0.10;;;;;;;1.34;100.00;100004.38;5010338;28;20073;-76
2021/01/14 12:54:55;;;;;;;0.10;0.10;;;;;;;1.34;100.00;100001.63;5010240;28;20394;-76
2021/01/14 12:57:58;;;;;;;0.20;0.20;;;;;;;1.32;100.00;100006.75;5010347;28;20064;-77
2021/01/14 13:01:02;;;;;;;0.10;0.10;;;;;;;1.34;100.00;100009.84;5011507;28;20058;-76
2021/01/14 13:04:07;;;;;;;0.10;0.10;;;;;;;1.35;100.00;100016.91;5009818;28;20079;-76
2021/01/14 13:07:10;;;;;;;0.10;0.10;;;;;;;1.38;100.00;100021.59;5009764;28;20080;-75
2021/01/14 13:10:14;;;;;;;0.10;0.10;;;;;;;1.33;100.00;100022.03;5010256;28;20173;-76
2021/01/14 13:13:18;;;;;;;0.20;0.20;;;;;;;1.30;100.00;100020.09;5008606;28;20053;-77
2021/01/14 13:16:22;;;;;;;0.13;0.13;;;;;;;1.34;100.00;100026.31;5011342;28;20045;-77
2021/01/14 13:19:26;;;;;;;0.10;0.10;;;;;;;1.32;100.00;100031.44;5010418;28;20056;-77
2021/01/14 13:22:29;;;;;;;0.10;0.10;;;;;;;1.31;100.00;100035.38;5020692;28;20430;-78
2021/01/14 13:25:39;;;;;;;0.10;0.10;;;;;;;1.27;100.00;100036.59;5025638;28;20052;-77
2021/01/14 13:28:43;;;;;;;0.20;0.20;;;;;;;1.27;100.00;100040.13;5009738;28;20053;-78
2021/01/14 13:31:51;;;;;;;0.17;0.17;;;;;;;1.27;100.00;100048.38;5009876;28;20056;-76
2021/01/14 13:34:55;;;;;;;0.20;0.20;;;;;;;1.24;100.00;100056.59;5010113;28;20053;-76
2021/01/14 13:37:58;;;;;;;0.30;0.30;;;;;;;1.24;100.00;100060.13;5009361;28;20069;-77
2021/01/14 13:41:01;;;;;;;0.20;0.20;;;;;;;1.23;100.00;100064.09;5027334;28;20052;-80
2021/01/14 13:44:06;;;;;;;0.10;0.10;;;;;;;1.23;100.00;100068.78;5029129;28;20116;-80
2021/01/14 13:47:13;;;;;;;0.15;0.15;;;;;;;1.21;100.00;100071.91;5017100;28;20068;-80
2021/01/14 13:50:16;;;;;;;0.10;0.10;;;;;;;1.22;100.00;100078.97;5026435;28;20409;-80
2021/01/14 13:53:20;;;;;;;0.20;0.20;;;;;;;1.17;100.00;100076.66;5013443;28;20061;-80
2021/01/14 13:56:24;;;;;;;0.13;0.13;;;;;;;1.19;100.00;100079.78;5021064;28;20053;-80
2021/01/14 13:59:27;;;;;;;0.13;0.13;;;;;;;1.15;100.00;100084.50;5009980;28;20057;-76
2021/01/14 14:02:31;;;;;;;0.20;0.20;;;;;;;1.15;100.00;100087.25;5011295;28;20048;-80
2021/01/14 14:05:35;;;;;;;0.10;0.10;;;;;;;1.17;100.00;100087.63;5009320;28;20049;-86
2021/01/14 14:08:38;;;;;;;0.25;0.25;;;;;;;1.19;100.00;100093.47;5018205;28;20524;-85
2021/01/14 14:11:43;;;;;;;0.20;0.20;;;;;;;1.19;100.00;100096.22;5009162;28;20057;-85
2021/01/14 14:14:47;;;;;;;0.10;0.10;;;;;;;1.19;100.00;100101.72;4997086;28;21255;-85
2021/01/14 14:17:54;;;;;;;0.10;0.10;;;;;;;1.18;100.00;100110.34;4997810;28;20061;-82
2021/01/14 14:20:58;;;;;;;0.10;0.10;;;;;;;1.25;100.00;100108.34;5010677;28;20122;-88
2021/01/14 14:24:05;;;;;;;0.10;0.10;;;;;;;1.27;100.00;100108.72;5011367;28;20076;-83
2021/01/14 14:27:08;;;;;;;0.20;0.20;;;;;;;1.27;100.00;100107.94;4997115;28;21056;-87
2021/01/14 14:30:12;;;;;;;0.30;0.30;;;;;;;1.30;100.00;100118.84;5010115;28;20069;-84
2021/01/14 14:33:16;;;;;;;0.20;0.20;;;;;;;1.33;100.00;100123.53;4997262;28;20053;-85